createdAt,value
2023-08-28T00:14:54.472Z,82.32
2023-08-28T00:15:55.530Z,82.28
2023-08-28T00:16:55.388Z,82.28
2023-08-28T00:17:55.897Z,82.18
2023-08-28T00:18:55.448Z,82.18
2023-08-28T00:19:55.497Z,82.08
2023-08-28T00:20:55.595Z,81.94
2023-08-28T00:21:55.681Z,81.84
2023-08-28T00:22:55.778Z,81.74
2023-08-28T00:55:19.143Z,81.98
2023-08-28T01:08:38.856Z,82.18
2023-08-28T01:09:40.487Z,82.08
2023-08-28T01:10:39.784Z,82.08
2023-08-28T01:21:24.716Z,82.02
2023-08-28T01:22:25.913Z,81.98
2023-08-28T01:55:36.088Z,82.26
2023-08-28T01:56:37.028Z,82.26
2023-08-28T02:02:59.267Z,82.36
2023-08-28T02:04:00.318Z,82.26
2023-08-28T02:05:00.481Z,82.26
2023-08-28T02:54:28.924Z,82.84
2023-08-28T02:55:29.881Z,82.84
2023-08-28T02:56:30.442Z,82.84
2023-08-28T02:57:29.920Z,82.84
2023-08-28T02:58:30.130Z,82.75
2023-08-28T03:35:36.258Z,82.95
2023-08-28T03:36:37.334Z,82.84
2023-08-28T03:37:37.083Z,82.95
2023-08-28T03:38:48.035Z,82.84
2023-08-28T03:39:37.653Z,82.75
2023-08-28T03:43:18.123Z,82.64
2023-08-28T03:44:18.990Z,82.64
2023-08-28T03:45:19.080Z,82.75
2023-08-28T03:46:19.106Z,82.64
2023-08-28T03:47:19.179Z,82.54
2023-08-28T04:01:09.436Z,82.89
2023-08-28T04:02:10.382Z,82.98
2023-08-28T04:03:10.484Z,83.09
2023-08-28T04:04:10.507Z,83.09
2023-08-28T04:05:10.575Z,82.98
2023-08-28T08:28:13.008Z,86.49
2023-08-28T08:33:29.076Z,86.39
2023-08-28T08:34:30.315Z,86.39
2023-08-28T08:50:34.177Z,86.39
2023-08-28T09:48:28.834Z,87.30
2023-08-28T09:49:29.321Z,87.20
2023-08-28T09:50:29.420Z,87.16
2023-08-28T09:51:29.574Z,87.06
2023-08-28T10:09:42.278Z,87.00
2023-08-28T10:10:43.325Z,86.86
2023-08-28T10:11:43.330Z,86.86
2023-08-28T10:12:43.931Z,86.86
2023-08-28T10:13:43.428Z,86.86
2023-08-28T10:25:00.760Z,86.65
2023-08-28T10:30:42.025Z,86.96
2023-08-28T10:31:43.060Z,87.06
2023-08-28T10:32:43.360Z,87.16
2023-08-28T12:05:08.245Z,89.74
2023-08-28T13:21:10.421Z,88.67
2023-08-28T13:22:12.026Z,88.67
2023-08-28T17:24:58.809Z,88.50
2023-08-28T17:37:06.388Z,88.16
2023-08-28T17:38:05.693Z,88.06
2023-08-28T17:39:05.889Z,88.06
2023-08-28T18:24:34.620Z,87.69
2023-08-28T18:30:59.663Z,87.45
2023-08-28T18:32:00.107Z,87.45
2023-08-28T18:33:00.218Z,87.45
2023-08-28T18:34:00.206Z,87.34
2023-08-28T18:35:00.291Z,87.24
2023-08-28T18:36:01.142Z,87.20
2023-08-28T18:37:00.362Z,87.10
2023-08-28T18:38:00.556Z,87.00
2023-08-28T18:39:00.535Z,86.90
2023-08-28T18:40:00.660Z,86.76
2023-08-28T18:42:33.003Z,86.55
2023-08-28T18:43:34.845Z,86.35
2023-08-28T18:44:33.992Z,86.35
2023-08-28T18:45:34.032Z,86.25
2023-08-28T19:29:16.631Z,86.27
2023-08-28T19:30:17.778Z,86.27
2023-08-28T19:31:17.854Z,86.27
2023-08-28T19:37:43.609Z,86.16
2023-08-28T19:38:44.405Z,86.07
2023-08-28T19:43:29.025Z,85.96
2023-08-28T20:00:32.072Z,85.86
2023-08-28T20:08:23.364Z,85.46
2023-08-28T20:09:24.155Z,85.46
2023-08-28T20:18:55.000Z,85.25
2023-08-28T20:19:55.961Z,85.15
2023-08-28T20:20:55.966Z,85.15
2023-08-28T20:21:56.017Z,85.11
2023-08-28T20:22:56.063Z,85.01
2023-08-28T20:23:56.153Z,84.91
2023-08-28T20:24:56.276Z,84.91
2023-08-28T20:25:56.410Z,84.77
2023-08-28T20:26:56.357Z,84.66
2023-08-28T20:27:56.418Z,84.56
2023-08-28T20:28:56.539Z,84.46
2023-08-28T20:29:56.568Z,84.46
2023-08-28T20:30:56.736Z,84.36
2023-08-28T20:31:56.823Z,84.22
2023-08-28T20:32:56.844Z,84.12
2023-08-28T20:33:56.897Z,84.01
2023-08-28T20:34:56.975Z,84.01
2023-08-28T20:35:57.047Z,83.91
2023-08-28T20:36:57.119Z,83.91
2023-08-28T20:37:57.197Z,83.81
2023-08-28T20:38:57.336Z,83.81
2023-08-28T20:39:57.376Z,83.71
2023-08-28T20:40:57.456Z,83.61
2023-08-28T20:41:57.493Z,83.51
2023-08-28T20:42:57.596Z,83.47
2023-08-28T20:43:57.787Z,83.37
2023-08-28T20:44:57.776Z,83.26
2023-08-28T20:45:57.990Z,83.26
2023-08-28T20:46:58.044Z,83.17
2023-08-28T20:47:58.096Z,83.06
2023-08-28T20:48:58.139Z,82.96
2023-08-28T20:49:58.206Z,82.96
2023-08-28T20:50:58.326Z,82.96
2023-08-28T20:51:58.434Z,82.86
2023-08-28T20:52:58.445Z,82.76
2023-08-28T20:53:58.659Z,82.76
2023-08-28T20:58:45.249Z,83.00
2023-08-28T20:59:44.736Z,83.00
2023-08-28T21:00:43.702Z,83.10
2023-08-28T21:01:43.899Z,83.00
2023-08-28T21:02:43.936Z,83.00
2023-08-28T21:03:44.031Z,83.00
2023-08-28T21:04:44.042Z,83.00
2023-08-28T21:05:44.152Z,82.90
2023-08-28T21:06:44.234Z,82.90
2023-08-28T21:07:44.289Z,82.90
2023-08-28T21:08:44.407Z,82.86
2023-08-28T21:09:44.439Z,82.96
2023-08-28T21:10:44.524Z,82.86
2023-08-28T21:11:44.738Z,82.86
2023-08-28T21:12:44.722Z,82.76
2023-08-28T21:13:44.802Z,82.66
2023-08-28T21:14:44.901Z,82.56
2023-08-28T21:15:45.012Z,82.56
2023-08-28T21:16:45.119Z,82.45
2023-08-28T21:17:45.194Z,82.45
2023-08-28T21:18:45.251Z,82.35
2023-08-28T21:19:45.398Z,82.35
2023-08-28T21:20:45.376Z,82.25
2023-08-28T21:21:45.527Z,82.25
2023-08-28T21:22:45.515Z,82.25
2023-08-28T21:35:44.225Z,83.08
2023-08-28T21:36:45.226Z,83.08
2023-08-28T21:37:45.389Z,83.18
2023-08-28T21:38:45.336Z,83.18
2023-08-28T21:39:45.484Z,83.08
2023-08-28T21:40:45.448Z,82.98
2023-08-28T21:41:45.549Z,82.98
2023-08-28T21:42:45.668Z,82.94
2023-08-28T21:43:45.676Z,82.84
2023-08-28T21:44:45.730Z,82.84
2023-08-28T21:45:45.874Z,82.84
2023-08-28T21:46:45.946Z,82.73
2023-08-28T21:47:45.989Z,82.64
2023-08-28T21:48:46.088Z,82.64
2023-08-28T21:49:46.181Z,82.64
2023-08-28T21:50:46.266Z,82.53
2023-08-28T21:51:46.370Z,82.53
2023-08-28T21:52:46.453Z,82.53
2023-08-28T21:53:46.533Z,82.53
2023-08-28T21:54:46.693Z,82.43
2023-08-28T21:55:46.774Z,82.43
2023-08-28T22:15:43.615Z,83.62
2023-08-28T22:16:44.631Z,83.62
2023-08-28T22:17:44.272Z,83.62
2023-08-28T22:18:44.448Z,83.62
2023-08-28T22:19:44.528Z,83.62
2023-08-28T22:20:44.634Z,83.62
